createdAt,value
2019-06-10T00:04:21.939Z,95.10
2019-06-10T00:09:25.039Z,95.00
2019-06-10T00:14:31.354Z,94.70
2019-06-10T00:19:34.471Z,94.50
2019-06-10T00:24:40.752Z,94.40
2019-06-10T00:29:43.635Z,94.20
2019-06-10T00:34:47.395Z,94.20
2019-06-10T00:39:51.310Z,94.30
2019-06-10T00:44:55.143Z,94.30
2019-06-10T00:50:00.841Z,94.50
2019-06-10T00:55:06.518Z,94.50
2019-06-10T01:00:19.266Z,94.70
2019-06-10T01:05:17.340Z,94.90
2019-06-10T01:10:21.273Z,95.00
2019-06-10T01:15:25.188Z,95.10
2019-06-10T01:20:29.174Z,95.20
2019-06-10T01:25:32.909Z,95.50
2019-06-10T01:30:36.605Z,95.50
2019-06-10T01:35:41.516Z,95.70
2019-06-10T01:40:45.634Z,95.90
2019-06-10T01:45:51.099Z,95.80
2019-06-10T01:50:54.834Z,96.00
2019-06-10T01:56:00.847Z,96.10
2019-06-10T02:01:23.520Z,96.10
2019-06-10T02:06:27.410Z,96.10
2019-06-10T02:11:31.783Z,96.20
2019-06-10T02:16:35.940Z,96.30
2019-06-10T02:21:41.685Z,96.30
2019-06-10T02:26:45.330Z,96.30
2019-06-10T02:31:51.883Z,96.40
2019-06-10T02:36:54.723Z,96.60
2019-06-10T02:42:04.438Z,96.20
2019-06-10T02:47:08.573Z,96.20
2019-06-10T02:52:22.399Z,95.80
2019-06-10T02:57:30.546Z,96.20
2019-06-10T03:02:35.335Z,96.50
2019-06-10T03:07:35.553Z,96.70
2019-06-10T03:12:42.281Z,96.50
2019-06-10T03:17:45.529Z,96.40
2019-06-10T03:22:49.213Z,96.70
2019-06-10T03:27:53.070Z,96.50
2019-06-10T03:32:57.092Z,96.50
2019-06-10T03:38:02.913Z,96.50
2019-06-10T03:43:06.239Z,96.50
2019-06-10T03:48:09.923Z,96.50
2019-06-10T03:53:13.984Z,96.50
2019-06-10T03:58:17.656Z,96.40
2019-06-10T04:03:24.265Z,96.30
2019-06-10T04:08:28.000Z,96.20
2019-06-10T04:13:33.752Z,96.20
2019-06-10T04:18:37.125Z,96.10
2019-06-10T04:23:43.193Z,96.20
2019-06-10T04:28:46.902Z,96.20
2019-06-10T04:33:52.334Z,96.30
2019-06-10T04:38:56.014Z,96.50
2019-06-10T04:44:02.445Z,96.60
2019-06-10T04:49:05.829Z,96.90
2019-06-10T04:54:09.553Z,96.90
2019-06-10T04:59:13.585Z,96.70
2019-06-10T05:04:17.267Z,97.10
2019-06-10T05:09:23.798Z,96.80
2019-06-10T05:14:27.411Z,96.60
2019-06-10T05:19:33.777Z,96.50
2019-06-10T05:24:37.997Z,96.30
2019-06-10T05:29:42.211Z,96.60
2019-06-10T05:34:46.421Z,96.30
2019-06-10T05:39:52.555Z,96.00
2019-06-10T05:44:55.981Z,96.00
2019-06-10T05:50:02.722Z,96.20
2019-06-10T05:55:05.206Z,95.80
2019-06-10T06:00:14.010Z,95.10
2019-06-10T06:05:15.781Z,95.50
2019-06-10T06:10:22.260Z,95.80
2019-06-10T06:15:27.390Z,96.10
2019-06-10T06:20:35.932Z,95.70
2019-06-10T06:25:43.354Z,95.60
2019-06-10T06:30:45.311Z,95.50
2019-06-10T06:35:49.002Z,95.40
2019-06-10T06:40:53.767Z,95.50
2019-06-10T06:45:57.939Z,95.20
2019-06-10T06:51:08.090Z,95.10
2019-06-10T06:56:07.464Z,95.20
2019-06-10T07:01:14.370Z,94.80
2019-06-10T07:06:16.740Z,95.00
2019-06-10T07:11:22.418Z,95.00
2019-06-10T07:16:26.280Z,94.40
2019-06-10T07:21:30.083Z,93.80
2019-06-10T07:26:36.147Z,94.20
2019-06-10T07:31:41.789Z,94.40
2019-06-10T07:36:45.573Z,93.80
2019-06-10T07:41:49.497Z,93.10
2019-06-10T07:46:53.279Z,93.50
2019-06-10T07:52:12.177Z,92.50
2019-06-10T07:57:02.515Z,91.40
2019-06-10T08:02:06.331Z,91.10
2019-06-10T08:07:12.405Z,91.00
2019-06-10T08:12:15.905Z,91.00
2019-06-10T08:17:22.265Z,88.90
2019-06-10T08:22:33.600Z,88.70
2019-06-10T08:27:33.554Z,87.20
2019-06-10T08:32:37.962Z,87.30
2019-06-10T08:37:43.206Z,84.90
2019-06-10T08:42:48.920Z,84.50
2019-06-10T08:47:54.221Z,84.00
2019-06-10T08:53:10.744Z,82.60
2019-06-10T08:58:04.978Z,82.60
2019-06-10T09:03:09.204Z,84.40
2019-06-10T09:08:13.137Z,83.70
2019-06-10T09:13:17.092Z,81.70
2019-06-10T09:18:23.177Z,82.60
2019-06-10T09:23:26.619Z,81.60
2019-06-10T09:28:32.630Z,80.20
2019-06-10T09:33:36.060Z,83.30
2019-06-10T09:38:42.575Z,84.60
2019-06-10T09:43:50.040Z,85.80
2019-06-10T09:48:55.755Z,85.60
2019-06-10T09:54:03.674Z,86.80
2019-06-10T09:59:04.010Z,88.00
2019-06-10T10:04:08.116Z,89.60
2019-06-10T10:09:11.916Z,90.30
2019-06-10T10:14:16.104Z,90.60
2019-06-10T10:19:20.260Z,91.00
2019-06-10T10:24:24.158Z,91.10
2019-06-10T10:29:27.837Z,90.10
2019-06-10T10:34:33.315Z,90.70
2019-06-10T10:39:37.615Z,90.00
2019-06-10T10:44:44.352Z,89.30
2019-06-10T10:49:47.056Z,88.90
2019-06-10T10:54:53.959Z,90.20
2019-06-10T10:59:56.743Z,89.80
2019-06-10T11:05:01.092Z,91.30
2019-06-10T11:10:05.839Z,91.20
2019-06-10T11:15:13.660Z,90.40
2019-06-10T11:20:17.458Z,88.70
2019-06-10T11:25:23.207Z,89.50
2019-06-10T11:30:26.969Z,90.00
2019-06-10T11:35:30.750Z,89.10
2019-06-10T11:40:34.467Z,84.90
2019-06-10T11:45:44.217Z,77.50
2019-06-10T11:50:43.662Z,75.10
2019-06-10T11:55:47.938Z,77.70
2019-06-10T12:00:56.743Z,75.60
2019-06-10T12:06:00.752Z,74.10
2019-06-10T12:11:02.869Z,72.00
2019-06-10T12:16:51.503Z,72.20
2019-06-10T12:21:13.239Z,73.30
2019-06-10T12:26:17.309Z,72.60
2019-06-10T12:31:23.131Z,74.90
2019-06-10T12:36:26.390Z,74.20
2019-06-10T12:41:30.387Z,74.40
2019-06-10T12:46:34.419Z,70.10
2019-06-10T12:51:38.488Z,66.50
2019-06-10T12:56:43.067Z,65.90
2019-06-10T13:01:47.291Z,59.00
2019-06-10T13:06:52.588Z,54.90
2019-06-10T13:11:57.862Z,48.90
2019-06-10T13:17:02.962Z,45.80
2019-06-10T13:22:08.783Z,51.40
2019-06-10T13:27:12.834Z,57.60
2019-06-10T13:32:16.525Z,60.20
2019-06-10T13:37:22.649Z,62.70
2019-06-10T13:42:27.359Z,62.20
2019-06-10T13:47:33.221Z,58.20
2019-06-10T13:52:38.399Z,57.20
2019-06-10T13:57:42.646Z,53.80
2019-06-10T14:02:47.529Z,56.50
2019-06-10T14:07:52.496Z,58.00
2019-06-10T14:12:57.016Z,59.80
2019-06-10T14:18:01.805Z,58.80
2019-06-10T14:23:06.176Z,60.00
2019-06-10T14:28:12.609Z,62.20
2019-06-10T14:33:16.723Z,64.20
2019-06-10T14:38:22.128Z,65.40
2019-06-10T14:43:26.055Z,65.80
2019-06-10T14:48:29.749Z,66.80
2019-06-10T14:53:33.905Z,67.00
2019-06-10T14:58:37.852Z,62.10
2019-06-10T15:03:42.931Z,62.40
2019-06-10T15:08:46.908Z,64.10
2019-06-10T15:13:52.361Z,66.00
2019-06-10T15:19:10.875Z,65.90
2019-06-10T15:24:02.976Z,66.30
2019-06-10T15:29:06.918Z,67.50
2019-06-10T15:34:13.333Z,67.90
2019-06-10T15:39:19.302Z,66.30
2019-06-10T15:44:37.282Z,67.90
2019-06-10T15:49:27.129Z,66.20
2019-06-10T15:54:33.116Z,67.00
2019-06-10T15:59:36.559Z,68.30
2019-06-10T16:04:40.244Z,68.10
2019-06-10T16:09:44.222Z,69.50
2019-06-10T16:14:47.897Z,67.50
2019-06-10T16:19:53.108Z,65.20
2019-06-10T16:24:57.090Z,61.90
2019-06-10T16:30:02.796Z,59.00
2019-06-10T16:35:07.594Z,58.10
2019-06-10T16:40:12.272Z,56.40
2019-06-10T16:45:19.813Z,55.30
2019-06-10T16:50:23.833Z,55.70
2019-06-10T16:55:27.606Z,57.20
2019-06-10T17:00:34.544Z,56.90
2019-06-10T17:05:36.715Z,56.80
2019-06-10T17:10:43.364Z,57.50
2019-06-10T17:15:45.855Z,57.70
2019-06-10T17:20:49.786Z,58.40
2019-06-10T17:25:55.744Z,60.80
2019-06-10T17:30:59.753Z,62.00
2019-06-10T17:36:03.801Z,61.70
2019-06-10T17:41:07.551Z,60.90
2019-06-10T17:46:13.722Z,61.10
2019-06-10T17:51:17.420Z,62.80
2019-06-10T17:56:24.269Z,64.60
2019-06-10T18:01:27.184Z,63.90
2019-06-10T18:06:32.230Z,64.70
2019-06-10T18:11:36.825Z,67.00
2019-06-10T18:16:42.531Z,69.90
2019-06-10T18:21:45.951Z,71.80
2019-06-10T18:26:49.747Z,73.60
2019-06-10T18:31:53.443Z,74.70
2019-06-10T18:36:59.091Z,75.80
2019-06-10T18:42:04.002Z,76.40
2019-06-10T18:47:07.728Z,77.10
2019-06-10T18:52:12.731Z,77.90
2019-06-10T18:57:16.495Z,79.40
2019-06-10T19:02:22.503Z,79.90
2019-06-10T19:07:25.730Z,80.40
2019-06-10T19:12:29.723Z,81.80
2019-06-10T19:17:36.907Z,82.60
2019-06-10T19:22:39.375Z,83.30
2019-06-10T19:27:44.490Z,84.20
2019-06-10T19:32:48.220Z,85.40
2019-06-10T19:37:51.905Z,86.40
2019-06-10T19:42:55.865Z,87.50
2019-06-10T19:47:59.563Z,88.60
2019-06-10T19:53:03.643Z,89.90
2019-06-10T19:58:10.334Z,90.90
2019-06-10T20:03:13.171Z,91.70
2019-06-10T20:08:16.922Z,92.20
2019-06-10T20:13:23.026Z,92.70
2019-06-10T20:18:26.767Z,92.50
2019-06-10T20:23:33.148Z,93.10
2019-06-10T20:28:36.579Z,93.40
2019-06-10T20:33:43.095Z,93.80
2019-06-10T20:38:48.664Z,94.60
2019-06-10T20:43:55.349Z,90.90
2019-06-10T20:48:57.814Z,92.40
2019-06-10T20:54:02.642Z,99.00
2019-06-10T20:59:06.628Z,99.90
2019-06-10T21:04:12.967Z,99.90
2019-06-10T21:09:17.101Z,99.90
2019-06-10T21:14:22.928Z,99.90
2019-06-10T21:19:26.489Z,99.90
2019-06-10T21:24:32.224Z,99.90
2019-06-10T21:29:35.618Z,99.90
2019-06-10T21:34:39.337Z,99.90
2019-06-10T21:39:44.877Z,99.90
2019-06-10T21:44:49.976Z,99.90
2019-06-10T21:49:54.961Z,99.90
2019-06-10T21:54:59.095Z,99.90
2019-06-10T22:00:14.015Z,99.90
2019-06-10T22:05:17.126Z,99.90
2019-06-10T22:10:22.839Z,99.90
2019-06-10T22:15:26.573Z,99.90
2019-06-10T22:20:32.419Z,99.90
2019-06-10T22:25:35.953Z,99.90
2019-06-10T22:30:39.664Z,99.90
2019-06-10T22:35:43.337Z,99.90
2019-06-10T22:40:47.112Z,99.90
2019-06-10T22:45:53.795Z,99.90
2019-06-10T22:50:56.285Z,99.90
2019-06-10T22:56:00.003Z,99.90
2019-06-10T23:01:04.225Z,99.90
2019-06-10T23:06:08.240Z,99.90
2019-06-10T23:11:13.023Z,99.90
2019-06-10T23:16:16.860Z,99.90
2019-06-10T23:21:20.612Z,99.90
2019-06-10T23:26:24.873Z,99.90
2019-06-10T23:31:28.585Z,99.90
2019-06-10T23:36:32.669Z,99.90
2019-06-10T23:41:36.599Z,99.90
2019-06-10T23:46:42.428Z,99.90
2019-06-10T23:51:45.827Z,99.90
2019-06-10T23:56:49.497Z,99.90
